Terminal Aerodrome Forecast
Issued by NWS Chicago, IL

Home | Current Version | Previous Version | Text Only | Print | Product List | Glossary On
Versions: 1 2 3 4 5 6 7 8 9 10 11 12 13 14 15 16 17 18 19 20 21 22 23
125
FTUS43 KLOT 202322
TAFRFD
TAF
KRFD 202322Z 2100/2124 VRB03KT P6SM BKN250
     FM210800 VRB03KT P6SM SCT080 BKN100
     FM211900 10004KT P6SM BKN080=

USA.gov is the U.S. government's official web portal to all federal, state and local government web resources and services.